createdAt,value
2022-08-20T00:00:27.844Z,14.1
2022-08-20T00:02:27.849Z,14.1
2022-08-20T00:04:27.868Z,14.11
2022-08-20T00:06:27.861Z,14.04
2022-08-20T00:08:27.864Z,14.04
2022-08-20T00:10:27.869Z,13.96
2022-08-20T00:12:27.878Z,13.96
2022-08-20T00:14:27.895Z,13.89
2022-08-20T00:16:27.898Z,13.91
2022-08-20T00:18:27.891Z,13.87
2022-08-20T00:20:27.898Z,13.88
2022-08-20T00:22:27.901Z,13.91
2022-08-20T00:24:27.918Z,13.94
2022-08-20T00:26:27.916Z,14.04
2022-08-20T00:28:27.918Z,14.05
2022-08-20T00:30:27.922Z,14.05
2022-08-20T00:32:27.920Z,14.04
2022-08-20T00:34:27.935Z,14.02
2022-08-20T00:36:30.116Z,13.99
2022-08-20T00:38:27.936Z,13.9
2022-08-20T00:40:27.937Z,13.88
2022-08-20T00:42:27.938Z,13.8
2022-08-20T00:44:27.951Z,13.8
2022-08-20T00:46:31.199Z,13.73
2022-08-20T00:48:27.951Z,13.75
2022-08-20T00:50:27.956Z,13.76
2022-08-20T00:52:27.964Z,13.69
2022-08-20T00:54:28.133Z,13.71
2022-08-20T00:56:27.971Z,13.74
2022-08-20T00:58:27.970Z,13.74
2022-08-20T01:00:27.969Z,13.75
2022-08-20T01:02:27.975Z,13.75
2022-08-20T01:04:27.987Z,13.77
2022-08-20T01:06:27.984Z,13.75
2022-08-20T01:08:27.985Z,13.77
2022-08-20T01:10:27.980Z,13.85
2022-08-20T01:12:27.990Z,13.85
2022-08-20T01:14:28.001Z,13.85
2022-08-20T01:16:28.074Z,13.93
2022-08-20T01:18:28.001Z,14.02
2022-08-20T01:20:28.000Z,14
2022-08-20T01:22:27.994Z,14.07
2022-08-20T01:24:28.006Z,14.04
2022-08-20T01:26:28.004Z,14.01
2022-08-20T01:28:28.005Z,13.99
2022-08-20T01:30:28.011Z,13.96
2022-08-20T01:32:28.016Z,13.96
2022-08-20T01:34:28.023Z,13.95
2022-08-20T01:36:28.011Z,13.85
2022-08-20T01:38:28.014Z,13.85
2022-08-20T01:40:28.014Z,13.87
2022-08-20T01:42:28.020Z,13.87
2022-08-20T01:44:28.034Z,13.87
2022-08-20T01:46:28.034Z,13.87
2022-08-20T01:48:28.033Z,13.87
2022-08-20T01:50:28.043Z,13.8
2022-08-20T01:52:28.049Z,13.78
2022-08-20T01:54:28.092Z,13.8
2022-08-20T01:56:28.070Z,13.88
2022-08-20T01:58:28.076Z,13.87
2022-08-20T02:00:28.108Z,13.85
2022-08-20T02:02:28.104Z,13.77
2022-08-20T02:04:28.122Z,13.77
2022-08-20T02:06:28.130Z,13.87
2022-08-20T02:08:28.136Z,13.87
2022-08-20T02:10:28.157Z,13.87
2022-08-20T02:12:28.163Z,13.85
2022-08-20T02:14:28.181Z,13.85
2022-08-20T02:16:28.185Z,13.84
2022-08-20T02:18:28.176Z,13.85
2022-08-20T02:20:28.194Z,13.84
2022-08-20T02:22:28.208Z,13.74
2022-08-20T02:24:28.232Z,13.74
2022-08-20T02:26:28.234Z,13.73
2022-08-20T02:28:28.244Z,13.75
2022-08-20T02:30:28.646Z,13.75
2022-08-20T02:32:32.943Z,13.77
2022-08-20T02:34:28.285Z,13.77
2022-08-20T02:36:28.295Z,13.78
2022-08-20T02:38:28.305Z,13.7
2022-08-20T02:40:30.649Z,13.7
2022-08-20T02:42:28.319Z,13.7
2022-08-20T02:44:28.342Z,13.72
2022-08-20T02:46:28.353Z,13.72
2022-08-20T02:48:28.353Z,13.63
2022-08-20T02:50:28.362Z,13.63
2022-08-20T02:52:28.371Z,13.65
2022-08-20T02:54:28.400Z,13.66
2022-08-20T02:56:28.397Z,13.66
2022-08-20T02:58:28.399Z,13.68
2022-08-20T03:00:28.417Z,13.68
2022-08-20T03:02:28.425Z,13.68
2022-08-20T03:04:28.450Z,13.68
2022-08-20T03:06:28.445Z,13.66
2022-08-20T03:08:28.445Z,13.58
2022-08-20T03:10:28.450Z,13.58
2022-08-20T03:12:28.458Z,13.52
2022-08-20T03:14:28.481Z,13.52
2022-08-20T03:16:28.486Z,13.43
2022-08-20T03:18:28.492Z,13.45
2022-08-20T03:20:28.497Z,13.41
2022-08-20T03:22:28.513Z,13.42
2022-08-20T03:24:28.533Z,13.45
2022-08-20T03:26:28.540Z,13.45
2022-08-20T03:28:28.546Z,13.47
2022-08-20T03:30:28.558Z,13.39
2022-08-20T03:32:28.574Z,13.4
2022-08-20T03:34:28.590Z,13.4
2022-08-20T03:36:29.145Z,13.42
2022-08-20T03:38:32.725Z,13.32
2022-08-20T03:40:28.614Z,13.32
2022-08-20T03:42:28.616Z,13.32
2022-08-20T03:44:28.644Z,13.23
2022-08-20T03:46:28.635Z,13.16
2022-08-20T03:48:28.630Z,13.16
2022-08-20T03:50:28.631Z,13.16
2022-08-20T03:52:28.634Z,13.08
2022-08-20T03:54:31.615Z,13.08
2022-08-20T03:56:28.640Z,13.1
2022-08-20T03:58:29.892Z,13.03
2022-08-20T04:00:28.644Z,13.04
2022-08-20T04:02:28.665Z,13.06
2022-08-20T04:04:28.667Z,13.06
2022-08-20T04:06:28.654Z,13.07
2022-08-20T04:08:28.654Z,13.01
2022-08-20T04:10:28.656Z,13.01
2022-08-20T04:12:28.659Z,13.02
2022-08-20T04:14:29.168Z,13.03
2022-08-20T04:16:28.673Z,13.05
2022-08-20T04:18:28.662Z,13.06
2022-08-20T04:20:28.659Z,13.07
2022-08-20T04:22:28.658Z,13.07
2022-08-20T04:24:32.573Z,13.09
2022-08-20T04:26:28.660Z,13.07
2022-08-20T04:28:28.696Z,13.07
2022-08-20T04:30:28.662Z,13.07
2022-08-20T04:32:28.661Z,13.07
2022-08-20T04:34:28.676Z,13.14
2022-08-20T04:36:28.669Z,13.06
2022-08-20T04:38:48.330Z,13.14
2022-08-20T04:40:28.668Z,13.15
2022-08-20T04:42:28.669Z,13.23
2022-08-20T04:44:28.685Z,13.23
2022-08-20T04:46:29.047Z,13.23
2022-08-20T04:48:28.673Z,13.23
2022-08-20T04:50:28.680Z,13.31
2022-08-20T04:52:28.673Z,13.3
2022-08-20T04:54:28.687Z,13.3
2022-08-20T04:56:28.675Z,13.29
2022-08-20T04:58:28.679Z,13.37
2022-08-20T05:00:28.678Z,13.35
2022-08-20T05:02:28.679Z,13.43
2022-08-20T05:04:28.690Z,13.42
2022-08-20T05:06:28.750Z,13.49
2022-08-20T05:08:28.683Z,13.54
2022-08-20T05:10:28.684Z,13.52
2022-08-20T05:12:28.684Z,13.59
2022-08-20T05:14:28.695Z,13.66
2022-08-20T05:16:28.697Z,13.73
2022-08-20T05:18:28.687Z,13.79
2022-08-20T05:20:28.686Z,13.85
2022-08-20T05:22:29.506Z,13.82
2022-08-20T05:24:28.697Z,13.86
2022-08-20T05:26:28.692Z,13.93
2022-08-20T05:28:28.692Z,13.95
2022-08-20T05:30:28.694Z,14
2022-08-20T05:32:28.699Z,13.96
2022-08-20T05:34:28.706Z,13.98
2022-08-20T05:36:28.692Z,14.05
2022-08-20T05:38:28.696Z,13.99
2022-08-20T05:40:28.695Z,14.07
2022-08-20T05:42:28.693Z,14.11
2022-08-20T05:44:28.704Z,14.08
2022-08-20T05:46:28.707Z,14.07
2022-08-20T05:48:28.698Z,14.14
2022-08-20T05:50:28.705Z,14.08
2022-08-20T05:52:28.700Z,14.15
2022-08-20T05:54:28.714Z,14.18
2022-08-20T05:56:28.702Z,14.14
2022-08-20T05:58:28.698Z,14.26
2022-08-20T06:00:28.748Z,14.21
2022-08-20T06:02:28.713Z,14.25
2022-08-20T06:04:28.812Z,14.18
2022-08-20T06:06:44.110Z,14.17
2022-08-20T06:08:28.720Z,14.3
2022-08-20T06:10:28.720Z,14.2
2022-08-20T06:12:28.726Z,14.26
2022-08-20T06:14:28.722Z,14.19
2022-08-20T06:16:29.120Z,14.16
2022-08-20T06:18:28.910Z,14.23
2022-08-20T06:20:28.727Z,14.18
2022-08-20T06:22:28.729Z,14
2022-08-20T06:24:28.724Z,14.04
2022-08-20T06:26:30.131Z,14.01
2022-08-20T06:28:28.730Z,13.94
2022-08-20T06:30:28.730Z,13.96
2022-08-20T06:32:32.317Z,14.02
2022-08-20T06:34:30.870Z,14.06
2022-08-20T06:36:28.730Z,14.1
2022-08-20T06:38:28.742Z,14.06
2022-08-20T06:40:28.736Z,14.1
2022-08-20T06:42:28.736Z,14.08
2022-08-20T06:44:28.740Z,14.04
2022-08-20T06:46:28.743Z,14.07
2022-08-20T06:48:28.740Z,14.09
2022-08-20T06:50:28.740Z,14.1
2022-08-20T06:52:51.822Z,14.05
2022-08-20T06:54:29.393Z,14.17
2022-08-20T06:56:28.751Z,14.03
2022-08-20T06:58:35.826Z,14.12
2022-08-20T07:00:28.750Z,14.04
2022-08-20T07:02:30.160Z,14.22
2022-08-20T07:04:28.754Z,13.98
2022-08-20T07:06:28.762Z,13.95
2022-08-20T07:08:28.761Z,14.09
2022-08-20T07:10:28.764Z,14.23
2022-08-20T07:12:28.760Z,14.04
2022-08-20T07:14:28.764Z,14.24
2022-08-20T07:16:28.772Z,14.16
2022-08-20T07:18:29.139Z,14
2022-08-20T07:20:28.787Z,14.1
2022-08-20T07:22:28.766Z,14.1
2022-08-20T07:24:32.925Z,14.16
2022-08-20T07:26:28.816Z,14.1
2022-08-20T07:28:28.840Z,14.37
2022-08-20T07:30:28.789Z,14.41
2022-08-20T07:32:28.995Z,14.37
2022-08-20T07:34:28.776Z,14.32
2022-08-20T07:36:28.780Z,14.16
2022-08-20T07:38:28.780Z,13.97
2022-08-20T07:40:28.941Z,13.92
2022-08-20T07:42:28.790Z,13.88
2022-08-20T07:44:30.806Z,13.82
2022-08-20T07:46:31.186Z,13.93
2022-08-20T07:48:30.943Z,13.93
2022-08-20T07:50:28.808Z,13.75
2022-08-20T07:52:28.808Z,13.85
2022-08-20T07:54:30.372Z,13.8
2022-08-20T07:56:28.787Z,13.86
2022-08-20T07:58:33.090Z,13.92
2022-08-20T08:00:28.784Z,13.98
2022-08-20T08:02:28.795Z,14
2022-08-20T08:04:28.802Z,14.12
2022-08-20T08:06:30.699Z,14.13
2022-08-20T08:08:28.798Z,14.2
2022-08-20T08:10:28.795Z,14.18
2022-08-20T08:12:28.803Z,14.18
2022-08-20T08:14:28.800Z,14.3
2022-08-20T08:16:28.811Z,14.19
2022-08-20T08:20:28.800Z,14.4
2022-08-20T08:22:28.815Z,14.34
2022-08-20T08:24:28.815Z,14.29
2022-08-20T08:26:28.990Z,14.25
2022-08-20T08:28:28.814Z,14.13
2022-08-20T08:30:28.818Z,14.34
2022-08-20T08:32:28.812Z,14.34
2022-08-20T08:34:28.828Z,14.41
2022-08-20T08:36:28.822Z,14.35
2022-08-20T08:38:28.819Z,14.35
2022-08-20T08:40:28.828Z,14.33
2022-08-20T08:42:28.829Z,14.41
2022-08-20T08:44:28.837Z,14.39
2022-08-20T08:46:28.849Z,14.37
2022-08-20T08:48:28.900Z,14.43
2022-08-20T08:50:50.395Z,14.41
2022-08-20T08:52:28.846Z,14.43
2022-08-20T08:54:28.853Z,14.41
2022-08-20T08:56:28.849Z,14.45
2022-08-20T08:58:28.855Z,14.47
2022-08-20T09:00:28.868Z,14.45
2022-08-20T09:02:28.873Z,14.47
2022-08-20T09:04:28.865Z,14.41
2022-08-20T09:06:28.867Z,14.43
2022-08-20T09:08:28.870Z,14.41
2022-08-20T09:10:28.873Z,14.51
2022-08-20T09:12:28.871Z,14.39
2022-08-20T09:14:28.878Z,14.45
2022-08-20T09:16:29.957Z,14.48
2022-08-20T09:18:28.880Z,14.48
2022-08-20T09:20:28.888Z,14.62
2022-08-20T09:22:28.888Z,14.45
2022-08-20T09:24:28.888Z,14.47
2022-08-20T09:26:29.122Z,14.5
2022-08-20T09:28:30.970Z,14.48
2022-08-20T09:30:28.916Z,14.47
2022-08-20T09:32:28.889Z,14.53
2022-08-20T09:34:28.902Z,14.47
2022-08-20T09:36:29.179Z,14.5
2022-08-20T09:38:28.898Z,14.5
2022-08-20T09:40:28.903Z,14.42
2022-08-20T09:42:28.910Z,14.44
2022-08-20T09:44:28.908Z,14.41
2022-08-20T09:46:28.924Z,14.43
2022-08-20T09:48:29.666Z,14.51
2022-08-20T09:50:28.920Z,14.53
2022-08-20T09:52:28.920Z,14.56
2022-08-20T09:54:28.921Z,14.54
2022-08-20T09:56:28.919Z,14.56
2022-08-20T09:58:28.924Z,14.56
2022-08-20T10:00:28.918Z,14.62
2022-08-20T10:02:28.931Z,14.5
2022-08-20T10:04:28.927Z,14.56
2022-08-20T10:06:28.936Z,14.52
2022-08-20T10:08:28.938Z,14.63
2022-08-20T10:10:28.939Z,14.71
2022-08-20T10:12:28.948Z,14.91
2022-08-20T10:14:28.945Z,14.78
2022-08-20T10:16:28.961Z,14.87
2022-08-20T10:18:28.952Z,14.8
2022-08-20T10:20:28.959Z,14.97
2022-08-20T10:22:28.969Z,14.91
2022-08-20T10:24:28.960Z,14.94
2022-08-20T10:26:28.968Z,15.28
2022-08-20T10:28:28.973Z,15.48
2022-08-20T10:30:28.978Z,15.34
2022-08-20T10:32:28.978Z,15.32
2022-08-20T10:34:28.973Z,15.02
2022-08-20T10:36:28.978Z,15.14
2022-08-20T10:38:28.980Z,14.72
2022-08-20T10:40:28.982Z,14.84
2022-08-20T10:42:28.996Z,14.78
2022-08-20T10:44:28.990Z,14.62
2022-08-20T10:46:29.016Z,14.83
2022-08-20T10:48:29.002Z,14.65
2022-08-20T10:50:30.251Z,14.66
2022-08-20T10:52:29.006Z,14.92
2022-08-20T10:54:29.001Z,14.47
2022-08-20T10:56:29.009Z,14.65
2022-08-20T10:58:37.783Z,14.52
2022-08-20T11:00:29.016Z,14.64
2022-08-20T11:02:29.060Z,14.66
2022-08-20T11:04:29.030Z,14.49
2022-08-20T11:06:29.024Z,14.44
2022-08-20T11:08:34.002Z,14.53
2022-08-20T11:10:29.027Z,14.5
2022-08-20T11:12:29.033Z,14.6
2022-08-20T11:14:29.032Z,14.46
2022-08-20T11:16:29.059Z,14.54
2022-08-20T11:18:29.051Z,14.68
2022-08-20T11:20:29.046Z,14.87
2022-08-20T11:22:29.052Z,14.72
2022-08-20T11:24:29.046Z,14.42
2022-08-20T11:26:29.061Z,14.54
2022-08-20T11:28:31.489Z,14.21
2022-08-20T11:30:29.066Z,14.21
2022-08-20T11:32:29.070Z,14.15
2022-08-20T11:34:29.062Z,14.2
2022-08-20T11:36:29.066Z,14.12
2022-08-20T11:38:29.069Z,14.27
2022-08-20T11:40:29.131Z,14.25
2022-08-20T11:42:29.076Z,14.18
2022-08-20T11:44:29.091Z,14.2
2022-08-20T11:46:29.099Z,13.94
2022-08-20T11:48:29.089Z,13.76
2022-08-20T11:50:29.101Z,13.73
2022-08-20T11:52:29.119Z,13.63
2022-08-20T11:54:29.128Z,13.73
2022-08-20T11:56:29.169Z,13.8
2022-08-20T11:58:29.178Z,13.84
2022-08-20T12:00:29.376Z,13.99
2022-08-20T12:02:29.842Z,14.12
2022-08-20T12:04:29.183Z,14.1
2022-08-20T12:06:29.187Z,14.1
2022-08-20T12:08:29.193Z,13.86
2022-08-20T12:10:29.196Z,14.05
2022-08-20T12:12:29.203Z,14
2022-08-20T12:14:29.201Z,14.03
2022-08-20T12:16:29.217Z,14.08
2022-08-20T12:18:29.210Z,14.05
2022-08-20T12:20:29.216Z,14.06
2022-08-20T12:22:29.214Z,14.14
2022-08-20T12:24:29.216Z,14.12
2022-08-20T12:26:29.219Z,14.25
2022-08-20T12:28:29.224Z,13.98
2022-08-20T12:30:29.225Z,13.9
2022-08-20T12:32:29.229Z,13.7
2022-08-20T12:34:29.244Z,13.78
2022-08-20T12:36:29.240Z,13.75
2022-08-20T12:38:29.353Z,13.72
2022-08-20T12:40:30.848Z,13.67
2022-08-20T12:42:29.245Z,13.77
2022-08-20T12:44:29.250Z,13.74
2022-08-20T12:46:29.267Z,13.64
2022-08-20T12:48:29.248Z,13.48
2022-08-20T12:50:31.558Z,13.37
2022-08-20T12:52:29.258Z,13.84
2022-08-20T12:54:29.269Z,13.78
2022-08-20T12:56:29.267Z,13.73
2022-08-20T12:58:29.265Z,13.77
2022-08-20T13:00:29.353Z,13.8
2022-08-20T13:02:29.278Z,13.71
2022-08-20T13:04:29.282Z,13.57
2022-08-20T13:06:29.278Z,13.64
2022-08-20T13:08:29.291Z,13.64
2022-08-20T13:10:29.289Z,13.76
2022-08-20T13:12:29.289Z,13.72
2022-08-20T13:14:29.288Z,13.88
2022-08-20T13:16:29.306Z,13.78
2022-08-20T13:18:29.298Z,13.82
2022-08-20T13:20:31.057Z,13.78
2022-08-20T13:22:29.311Z,13.78
2022-08-20T13:24:29.316Z,13.76
2022-08-20T13:26:29.315Z,13.72
2022-08-20T13:28:29.322Z,13.68
2022-08-20T13:30:29.327Z,13.8
2022-08-20T13:32:29.328Z,13.78
2022-08-20T13:34:29.321Z,13.74
2022-08-20T13:36:29.327Z,13.55
2022-08-20T13:38:29.336Z,13.62
2022-08-20T13:40:29.339Z,13.66
2022-08-20T13:42:29.338Z,13.36
2022-08-20T13:44:31.359Z,13.31
2022-08-20T13:46:29.526Z,13.51
2022-08-20T13:48:29.354Z,13.58
2022-08-20T13:50:29.353Z,13.7
2022-08-20T13:52:29.365Z,13.57
2022-08-20T13:54:30.314Z,13.61
2022-08-20T13:56:29.374Z,13.56
2022-08-20T13:58:29.377Z,13.53
2022-08-20T14:00:31.583Z,13.55
2022-08-20T14:02:29.380Z,13.62
2022-08-20T14:04:29.394Z,13.69
2022-08-20T14:06:29.393Z,13.71
2022-08-20T14:08:29.395Z,13.48
2022-08-20T14:10:29.395Z,13.26
2022-08-20T14:12:30.515Z,13.38
2022-08-20T14:14:29.413Z,13.41
2022-08-20T14:16:31.236Z,13.44
2022-08-20T14:18:29.422Z,13.46
2022-08-20T14:20:29.502Z,13.52
2022-08-20T14:22:29.432Z,13.26
2022-08-20T14:24:29.434Z,13.29
2022-08-20T14:26:29.440Z,12.94
2022-08-20T14:28:29.440Z,12.92
2022-08-20T14:30:29.444Z,13.01
2022-08-20T14:32:29.443Z,13.06
2022-08-20T14:34:29.455Z,13.04
2022-08-20T14:36:29.457Z,13.09
2022-08-20T14:38:29.455Z,13.16
2022-08-20T14:40:29.468Z,13.12
2022-08-20T14:42:29.476Z,12.95
2022-08-20T14:44:29.478Z,12.99
2022-08-20T14:46:29.501Z,12.94
2022-08-20T14:48:29.489Z,12.84
2022-08-20T14:50:29.491Z,13.01
2022-08-20T14:52:29.500Z,12.96
2022-08-20T14:54:29.504Z,12.83
2022-08-20T14:56:29.506Z,12.97
2022-08-20T14:58:29.517Z,12.97
2022-08-20T15:00:29.525Z,12.73
2022-08-20T15:02:29.531Z,12.94
2022-08-20T15:04:29.536Z,12.83
2022-08-20T15:06:29.551Z,12.78
2022-08-20T15:08:29.561Z,12.55
2022-08-20T15:10:29.562Z,12.55
2022-08-20T15:12:29.567Z,12.37
2022-08-20T15:14:29.573Z,12.27
2022-08-20T15:16:29.588Z,12.25
2022-08-20T15:18:29.578Z,12.34
2022-08-20T15:20:29.592Z,12.34
2022-08-20T15:22:29.592Z,12.16
2022-08-20T15:24:29.594Z,12.18
2022-08-20T15:26:29.599Z,12.16
2022-08-20T15:28:29.603Z,12.09
2022-08-20T15:30:29.616Z,12.2
2022-08-20T15:32:29.619Z,12.41
2022-08-20T15:34:29.623Z,12.36
2022-08-20T15:36:29.626Z,12.43
2022-08-20T15:38:29.627Z,12.72
2022-08-20T15:40:29.719Z,12.85
2022-08-20T15:42:29.628Z,12.99
2022-08-20T15:44:29.636Z,13.13
2022-08-20T15:46:31.158Z,13.08
2022-08-20T15:48:29.644Z,13.03
2022-08-20T15:50:29.646Z,13.05
2022-08-20T15:52:29.651Z,13.21
2022-08-20T15:54:29.658Z,13.26
2022-08-20T15:56:29.654Z,13.3
2022-08-20T15:58:29.668Z,13.39
2022-08-20T16:00:29.669Z,13.48
2022-08-20T16:02:29.669Z,13.36
2022-08-20T16:04:29.670Z,13.44
2022-08-20T16:06:29.670Z,13.39
2022-08-20T16:08:29.682Z,13.36
2022-08-20T16:10:29.671Z,13.45
2022-08-20T16:12:29.688Z,13.5
2022-08-20T16:14:29.688Z,13.59
2022-08-20T16:16:29.709Z,13.49
2022-08-20T16:18:29.690Z,13.58
2022-08-20T16:20:32.985Z,13.63
2022-08-20T16:22:29.690Z,13.57
2022-08-20T16:24:29.690Z,13.59
2022-08-20T16:26:29.693Z,13.61
2022-08-20T16:28:29.699Z,13.47
2022-08-20T16:30:29.702Z,13.58
2022-08-20T16:32:29.700Z,13.64
2022-08-20T16:34:34.191Z,13.6
2022-08-20T16:36:29.702Z,13.58
2022-08-20T16:38:29.702Z,13.56
2022-08-20T16:40:29.708Z,13.52
2022-08-20T16:42:29.707Z,13.55
2022-08-20T16:44:29.704Z,13.59
2022-08-20T16:46:29.736Z,13.46
2022-08-20T16:48:30.219Z,13.55
2022-08-20T16:50:29.717Z,13.61
2022-08-20T16:52:29.719Z,13.66
2022-08-20T16:54:30.149Z,13.61
2022-08-20T16:56:29.736Z,13.64
2022-08-20T16:58:29.737Z,13.49
2022-08-20T17:00:29.730Z,13.35
2022-08-20T17:02:29.730Z,13.34
2022-08-20T17:04:29.744Z,13.45
2022-08-20T17:06:29.748Z,13.17
2022-08-20T17:08:29.758Z,13.16
2022-08-20T17:10:29.746Z,13.23
2022-08-20T17:12:29.759Z,13.22
2022-08-20T17:14:29.769Z,13.2
2022-08-20T17:16:29.771Z,13.2
2022-08-20T17:18:29.774Z,13.13
2022-08-20T17:20:29.769Z,13.14
2022-08-20T17:22:29.775Z,13.15
2022-08-20T17:24:29.788Z,13.15
2022-08-20T17:26:29.791Z,13.22
2022-08-20T17:28:33.227Z,13
2022-08-20T17:30:29.798Z,12.98
2022-08-20T17:32:29.806Z,12.82
2022-08-20T17:34:29.812Z,12.88
2022-08-20T17:36:29.810Z,12.9
2022-08-20T17:38:29.822Z,12.81
2022-08-20T17:40:29.832Z,12.8
2022-08-20T17:42:29.834Z,12.91
2022-08-20T17:44:29.841Z,12.88
2022-08-20T17:46:29.843Z,12.85
2022-08-20T17:48:29.845Z,12.82
2022-08-20T17:50:29.855Z,12.86
2022-08-20T17:52:29.855Z,12.83
2022-08-20T17:54:29.861Z,12.8
2022-08-20T17:56:29.864Z,12.82
2022-08-20T17:58:29.867Z,12.81
2022-08-20T18:00:29.870Z,12.84
2022-08-20T18:02:29.873Z,12.85
2022-08-20T18:04:29.875Z,12.86
2022-08-20T18:06:30.770Z,12.86
2022-08-20T18:08:30.629Z,12.89
2022-08-20T18:10:29.897Z,12.97
2022-08-20T18:12:33.388Z,13.02
2022-08-20T18:14:29.905Z,13.04
2022-08-20T18:16:29.918Z,13.01
2022-08-20T18:18:29.910Z,12.97
2022-08-20T18:20:32.100Z,12.94
2022-08-20T18:22:29.928Z,12.92
2022-08-20T18:24:29.925Z,12.94
2022-08-20T18:26:29.932Z,12.91
2022-08-20T18:28:29.931Z,12.89
2022-08-20T18:30:29.946Z,12.95
2022-08-20T18:32:29.941Z,12.93
2022-08-20T18:34:29.951Z,12.9
2022-08-20T18:36:29.955Z,12.8
2022-08-20T18:38:29.962Z,12.8
2022-08-20T18:40:29.972Z,12.86
2022-08-20T18:42:30.006Z,12.84
2022-08-20T18:44:29.976Z,12.77
2022-08-20T18:46:29.994Z,12.82
2022-08-20T18:48:29.982Z,12.84
2022-08-20T18:50:29.991Z,12.85
2022-08-20T18:52:29.990Z,12.83
2022-08-20T18:54:29.993Z,12.92
2022-08-20T18:56:29.997Z,12.99
2022-08-20T18:58:30.007Z,12.95
2022-08-20T19:00:30.614Z,12.95
2022-08-20T19:02:30.009Z,12.89
2022-08-20T19:04:30.016Z,12.85
2022-08-20T19:06:30.025Z,12.85
2022-08-20T19:08:30.025Z,12.87
2022-08-20T19:10:30.024Z,12.83
2022-08-20T19:12:30.026Z,12.86
2022-08-20T19:14:30.036Z,12.91
2022-08-20T19:16:30.058Z,12.91
2022-08-20T19:18:30.034Z,13.01
2022-08-20T19:20:30.047Z,13
2022-08-20T19:22:30.057Z,12.99
2022-08-20T19:24:30.064Z,12.99
2022-08-20T19:26:30.074Z,12.94
2022-08-20T19:28:30.070Z,12.96
2022-08-20T19:30:30.076Z,12.98
2022-08-20T19:32:30.085Z,13.03
2022-08-20T19:34:30.085Z,13.06
2022-08-20T19:36:30.082Z,12.97
2022-08-20T19:38:30.082Z,12.93
2022-08-20T19:40:30.099Z,12.93
2022-08-20T19:42:30.090Z,12.99
2022-08-20T19:44:30.094Z,13.04
2022-08-20T19:46:30.105Z,12.96
2022-08-20T19:48:30.099Z,12.98
2022-08-20T19:50:30.112Z,12.92
2022-08-20T19:52:30.107Z,12.95
2022-08-20T19:54:30.114Z,12.96
2022-08-20T19:56:30.113Z,13.04
2022-08-20T19:58:30.118Z,12.93
2022-08-20T20:00:30.121Z,12.98
2022-08-20T20:02:30.117Z,13.17
2022-08-20T20:04:30.131Z,13.18
2022-08-20T20:06:30.134Z,13.18
2022-08-20T20:08:30.129Z,13.13
2022-08-20T20:10:32.438Z,13.1
2022-08-20T20:12:30.136Z,13.12
2022-08-20T20:14:30.140Z,13.07
2022-08-20T20:16:30.150Z,13.14
2022-08-20T20:18:30.150Z,13.03
2022-08-20T20:20:30.147Z,13.06
2022-08-20T20:22:30.152Z,13.06
2022-08-20T20:24:30.150Z,13.08
2022-08-20T20:26:30.151Z,13.06
2022-08-20T20:28:30.152Z,13.08
2022-08-20T20:30:30.153Z,13.13
2022-08-20T20:32:30.156Z,13.08
2022-08-20T20:34:30.162Z,13.14
2022-08-20T20:36:30.163Z,13.09
2022-08-20T20:38:30.169Z,13.06
2022-08-20T20:40:30.184Z,13.03
2022-08-20T20:42:30.169Z,12.9
2022-08-20T20:44:32.899Z,12.79
2022-08-20T20:46:30.184Z,12.72
2022-08-20T20:48:32.835Z,12.78
2022-08-20T20:50:30.180Z,12.69
2022-08-20T20:52:30.185Z,12.28
2022-08-20T20:54:30.184Z,12.11
2022-08-20T20:56:30.185Z,12
2022-08-20T20:58:30.186Z,11.9
2022-08-20T21:00:30.189Z,11.78
2022-08-20T21:02:30.192Z,11.68
2022-08-20T21:04:30.189Z,11.71
2022-08-20T21:06:30.189Z,11.61
2022-08-20T21:08:30.188Z,11.61
2022-08-20T21:10:30.193Z,11.58
2022-08-20T21:12:30.196Z,11.48
2022-08-20T21:14:30.196Z,11.44
2022-08-20T21:16:30.218Z,11.41
2022-08-20T21:18:30.212Z,11.48
2022-08-20T21:20:30.216Z,11.48
2022-08-20T21:22:30.218Z,11.44
2022-08-20T21:24:30.241Z,11.38
2022-08-20T21:26:30.240Z,11.34
2022-08-20T21:28:30.246Z,11.36
2022-08-20T21:30:30.262Z,11.28
2022-08-20T21:32:30.272Z,11.26
2022-08-20T21:34:30.284Z,11.24
2022-08-20T21:36:30.298Z,11.28
2022-08-20T21:38:30.313Z,11.23
2022-08-20T21:40:30.327Z,11.26
2022-08-20T21:42:30.336Z,11.19
2022-08-20T21:44:30.350Z,11.24
2022-08-20T21:46:30.372Z,11.21
2022-08-20T21:48:30.368Z,11.19
2022-08-20T21:50:30.378Z,11.18
2022-08-20T21:52:30.384Z,11.19
2022-08-20T21:54:30.388Z,11.18
2022-08-20T21:56:31.075Z,11.18
2022-08-20T21:58:30.408Z,11.21
2022-08-20T22:00:30.413Z,11.21
2022-08-20T22:02:30.422Z,11.19
2022-08-20T22:04:34.871Z,11.21
2022-08-20T22:06:30.430Z,11.13
2022-08-20T22:08:30.435Z,11.03
2022-08-20T22:10:30.442Z,11.06
2022-08-20T22:12:30.450Z,11.06
2022-08-20T22:14:30.452Z,11.06
2022-08-20T22:16:30.462Z,11.06
2022-08-20T22:18:30.459Z,10.98
2022-08-20T22:20:30.468Z,10.98
2022-08-20T22:22:30.476Z,10.95
2022-08-20T22:24:30.480Z,10.98
2022-08-20T22:26:30.496Z,10.93
2022-08-20T22:28:30.502Z,10.95
2022-08-20T22:30:30.507Z,10.88
2022-08-20T22:32:33.574Z,10.74
2022-08-20T22:34:30.521Z,10.77
2022-08-20T22:36:30.526Z,10.77
2022-08-20T22:38:30.535Z,10.77
2022-08-20T22:40:30.542Z,10.79
2022-08-20T22:42:30.551Z,10.76
2022-08-20T22:44:30.559Z,10.74
2022-08-20T22:46:30.577Z,10.77
2022-08-20T22:48:30.575Z,10.72
2022-08-20T22:50:30.583Z,10.6
2022-08-20T22:52:30.592Z,10.58
2022-08-20T22:54:30.598Z,10.58
2022-08-20T22:56:30.602Z,10.52
2022-08-20T22:58:31.355Z,10.52
2022-08-20T23:00:30.622Z,10.52
2022-08-20T23:02:30.626Z,10.5
2022-08-20T23:04:30.641Z,10.47
2022-08-20T23:06:30.639Z,10.46
2022-08-20T23:08:30.635Z,10.47
2022-08-20T23:10:30.643Z,10.42
2022-08-20T23:12:30.648Z,10.48
2022-08-20T23:14:30.658Z,10.47
2022-08-20T23:16:30.675Z,10.57
2022-08-20T23:18:30.677Z,10.57
2022-08-20T23:20:30.684Z,10.59
2022-08-20T23:22:30.695Z,10.59
2022-08-20T23:24:30.703Z,10.62
2022-08-20T23:26:30.714Z,10.66
2022-08-20T23:28:30.718Z,10.65
2022-08-20T23:30:30.730Z,10.66
2022-08-20T23:32:30.737Z,10.62
2022-08-20T23:34:30.747Z,10.62
2022-08-20T23:36:30.755Z,10.63
2022-08-20T23:38:30.786Z,10.63
2022-08-20T23:40:30.777Z,10.63
2022-08-20T23:42:30.785Z,10.57
2022-08-20T23:44:30.802Z,10.58
2022-08-20T23:46:30.815Z,10.53
2022-08-20T23:48:30.812Z,10.49
2022-08-20T23:50:30.817Z,10.53
2022-08-20T23:52:30.830Z,10.4
2022-08-20T23:54:30.837Z,10.45
2022-08-20T23:56:30.844Z,10.44
2022-08-20T23:58:30.854Z,10.45
